createdAt,value
2023-03-29T00:03:06.582Z,180.69
2023-03-29T00:07:21.395Z,180.79
2023-03-29T00:11:06.422Z,184.39
2023-03-29T00:15:06.346Z,176.98
2023-03-29T00:19:06.305Z,178.59
2023-03-29T00:23:06.331Z,180.91
2023-03-29T00:27:06.268Z,178.09
2023-03-29T00:31:06.174Z,180.65
2023-03-29T00:35:06.199Z,178.16
2023-03-29T00:39:06.109Z,176.94
2023-03-29T00:43:06.129Z,177.29
2023-03-29T00:47:06.055Z,179.87
2023-03-29T00:51:08.149Z,179.09
2023-03-29T00:55:06.439Z,177.57
2023-03-29T00:59:05.931Z,180.30
2023-03-29T01:03:06.015Z,179.91
2023-03-29T01:07:05.927Z,181.92
2023-03-29T01:11:05.815Z,180.05
2023-03-29T01:15:05.761Z,180.30
2023-03-29T01:19:05.758Z,182.34
2023-03-29T01:23:05.850Z,178.92
2023-03-29T01:27:05.704Z,180.27
2023-03-29T01:31:05.642Z,179.73
2023-03-29T01:35:05.591Z,178.98
2023-03-29T01:39:05.745Z,180.28
2023-03-29T01:43:05.865Z,175.05
2023-03-29T01:47:05.960Z,176.49
2023-03-29T01:51:05.975Z,179.90
2023-03-29T01:55:06.009Z,177.65
2023-03-29T01:59:06.476Z,175.82
2023-03-29T02:03:06.247Z,175.90
2023-03-29T02:07:06.219Z,175.85
2023-03-29T02:11:06.262Z,174.08
2023-03-29T02:15:06.348Z,177.76
2023-03-29T02:19:06.429Z,171.39
2023-03-29T02:23:06.510Z,169.76
2023-03-29T02:27:06.524Z,166.39
2023-03-29T02:31:06.580Z,165.10
2023-03-29T02:35:06.667Z,160.20
2023-03-29T02:39:06.642Z,162.16
2023-03-29T02:43:06.744Z,161.43
2023-03-29T02:47:06.699Z,162.69
2023-03-29T02:51:06.734Z,161.85
2023-03-29T02:55:06.722Z,162.09
2023-03-29T02:59:06.713Z,160.96
2023-03-29T03:03:06.780Z,161.47
2023-03-29T03:07:06.635Z,161.61
2023-03-29T03:11:06.634Z,162.56
2023-03-29T03:15:06.662Z,164.16
2023-03-29T03:19:06.637Z,164.50
2023-03-29T03:23:06.611Z,165.77
2023-03-29T03:27:06.570Z,168.85
2023-03-29T03:31:06.662Z,169.76
2023-03-29T03:35:06.678Z,170.20
2023-03-29T03:39:06.706Z,171.65
2023-03-29T03:43:06.752Z,165.51
2023-03-29T03:47:06.816Z,167.42
2023-03-29T03:51:06.790Z,173.16
2023-03-29T03:55:06.835Z,171.12
2023-03-29T03:59:06.772Z,168.70
2023-03-29T04:03:06.862Z,166.53
2023-03-29T04:07:07.020Z,151.78
2023-03-29T04:11:06.751Z,134.75
2023-03-29T04:15:06.781Z,132.03
2023-03-29T04:19:06.822Z,117.77
2023-03-29T04:23:06.803Z,113.60
2023-03-29T04:27:06.910Z,110.82
2023-03-29T04:31:06.958Z,110.83
2023-03-29T04:35:06.989Z,109.94
2023-03-29T04:39:06.952Z,115.84
2023-03-29T04:43:06.996Z,121.50
2023-03-29T04:47:07.018Z,126.53
2023-03-29T04:51:07.061Z,127.46
2023-03-29T04:55:07.064Z,127.33
2023-03-29T04:59:07.058Z,131.65
2023-03-29T05:03:07.112Z,136.31
2023-03-29T05:07:07.041Z,151.57
2023-03-29T05:11:07.250Z,156.26
2023-03-29T05:15:07.264Z,147.14
2023-03-29T05:19:07.297Z,141.07
2023-03-29T05:23:07.259Z,126.22
2023-03-29T05:27:07.255Z,114.95
2023-03-29T05:31:07.290Z,99.33
2023-03-29T05:35:07.410Z,105.85
2023-03-29T05:39:07.362Z,110.06
2023-03-29T05:43:07.357Z,108.60
2023-03-29T05:47:07.378Z,122.90
2023-03-29T05:51:07.443Z,129.60
2023-03-29T05:55:07.489Z,144.95
2023-03-29T05:59:07.366Z,146.19
2023-03-29T06:03:18.032Z,161.29
2023-03-29T06:07:08.342Z,168.41
2023-03-29T06:11:07.446Z,184.46
2023-03-29T06:15:07.386Z,188.73
2023-03-29T06:19:07.307Z,198.22
2023-03-29T06:23:07.266Z,207.28
2023-03-29T06:27:07.256Z,205.46
2023-03-29T06:31:07.349Z,208.49
2023-03-29T06:35:07.692Z,213.48
2023-03-29T06:39:07.241Z,201.22
2023-03-29T06:43:07.077Z,130.18
2023-03-29T06:47:07.033Z,169.14
2023-03-29T06:51:07.027Z,160.59
2023-03-29T06:55:07.011Z,177.42
2023-03-29T06:59:06.974Z,193.22
2023-03-29T07:03:07.241Z,200.23
2023-03-29T07:07:06.847Z,191.92
2023-03-29T07:11:06.936Z,172.19
2023-03-29T07:15:07.083Z,150.91
2023-03-29T07:19:07.334Z,166.12
2023-03-29T07:23:07.339Z,154.10
2023-03-29T07:27:07.261Z,160.05
2023-03-29T07:31:07.611Z,156.56
2023-03-29T07:35:07.103Z,80.67
2023-03-29T07:39:07.122Z,85.36
2023-03-29T07:43:07.064Z,111.87
2023-03-29T07:47:07.022Z,135.48
2023-03-29T07:51:07.024Z,124.84
2023-03-29T07:55:07.155Z,127.67
2023-03-29T07:59:06.962Z,116.65
2023-03-29T08:03:06.974Z,120.55
2023-03-29T08:07:06.851Z,105.83
2023-03-29T08:11:06.874Z,130.81
2023-03-29T08:15:07.058Z,126.84
2023-03-29T08:19:09.943Z,120.08
2023-03-29T08:23:07.064Z,128.45
2023-03-29T08:27:06.989Z,120.80
2023-03-29T08:31:07.003Z,62.78
2023-03-29T08:35:07.078Z,29.83
2023-03-29T08:39:06.897Z,25.00
2023-03-29T08:43:06.839Z,74.82
2023-03-29T08:47:06.866Z,91.32
2023-03-29T08:51:09.813Z,127.20
2023-03-29T08:55:06.737Z,137.37
2023-03-29T08:59:06.708Z,158.23
2023-03-29T09:03:06.730Z,169.84
2023-03-29T09:07:06.640Z,183.51
2023-03-29T09:11:06.616Z,188.97
2023-03-29T09:15:06.553Z,195.30
2023-03-29T09:19:06.509Z,184.36
2023-03-29T09:23:06.474Z,197.73
2023-03-29T09:27:06.440Z,205.93
2023-03-29T09:31:06.725Z,191.20
2023-03-29T09:35:06.397Z,200.50
2023-03-29T09:39:06.372Z,195.70
2023-03-29T09:43:06.329Z,205.24
2023-03-29T09:47:06.328Z,232.30
2023-03-29T09:51:06.203Z,233.55
2023-03-29T09:55:06.701Z,222.06
2023-03-29T09:59:06.102Z,250.00
2023-03-29T10:03:07.464Z,225.42
2023-03-29T10:07:06.062Z,239.69
2023-03-29T10:11:06.044Z,241.68
2023-03-29T10:15:07.370Z,236.20
2023-03-29T10:19:07.006Z,238.17
2023-03-29T10:23:06.108Z,210.06
2023-03-29T10:27:06.240Z,209.30
2023-03-29T10:31:06.562Z,236.59
2023-03-29T10:35:06.609Z,240.12
2023-03-29T10:39:06.746Z,223.68
2023-03-29T10:43:06.928Z,231.65
2023-03-29T10:47:07.078Z,231.15
2023-03-29T10:51:07.180Z,222.10
2023-03-29T10:55:07.348Z,223.14
2023-03-29T10:59:07.281Z,220.18
2023-03-29T11:03:07.310Z,211.81
2023-03-29T11:07:07.190Z,210.17
2023-03-29T11:11:07.143Z,177.72
2023-03-29T11:15:07.128Z,159.35
2023-03-29T11:19:07.116Z,123.38
2023-03-29T11:23:07.062Z,71.85
2023-03-29T11:27:06.965Z,10.47
2023-03-29T11:31:07.051Z,17.48
2023-03-29T11:35:06.910Z,27.63
2023-03-29T11:39:06.890Z,17.29
2023-03-29T11:43:06.857Z,36.90
2023-03-29T11:47:06.793Z,31.30
2023-03-29T11:51:07.234Z,48.27
2023-03-29T11:55:06.946Z,48.06
2023-03-29T11:59:07.021Z,40.43
2023-03-29T12:03:07.332Z,107.88
2023-03-29T12:07:07.391Z,160.98
2023-03-29T12:11:08.243Z,192.17
2023-03-29T12:15:07.550Z,211.85
2023-03-29T12:19:07.698Z,223.26
2023-03-29T12:23:07.906Z,231.77
2023-03-29T12:27:08.068Z,231.94
2023-03-29T12:31:08.165Z,239.83
2023-03-29T12:35:08.341Z,230.64
2023-03-29T12:39:08.321Z,245.23
2023-03-29T12:43:08.393Z,250.00
2023-03-29T12:47:08.522Z,235.21
2023-03-29T12:51:08.445Z,250.06
2023-03-29T12:55:08.473Z,237.67
2023-03-29T12:59:08.452Z,242.96
2023-03-29T13:03:08.561Z,242.38
2023-03-29T13:07:08.527Z,243.59
2023-03-29T13:11:08.573Z,232.12
2023-03-29T13:15:08.677Z,242.70
2023-03-29T13:19:08.758Z,248.34
2023-03-29T13:23:08.840Z,231.49
2023-03-29T13:27:08.897Z,245.50
2023-03-29T13:31:09.010Z,227.56
2023-03-29T13:35:09.052Z,227.55
2023-03-29T13:39:09.239Z,232.74
2023-03-29T13:43:09.419Z,217.55
2023-03-29T13:47:09.610Z,227.92
2023-03-29T13:51:09.556Z,237.77
2023-03-29T13:55:09.612Z,217.23
2023-03-29T13:59:09.626Z,220.83
2023-03-29T14:03:09.749Z,201.00
2023-03-29T14:07:09.643Z,192.26
2023-03-29T14:11:09.683Z,201.63
2023-03-29T14:15:09.700Z,196.10
2023-03-29T14:19:09.722Z,184.41
2023-03-29T14:23:09.795Z,191.70
2023-03-29T14:27:09.929Z,195.32
2023-03-29T14:31:10.050Z,217.18
2023-03-29T14:35:10.122Z,218.39
2023-03-29T14:39:10.257Z,217.60
2023-03-29T14:43:10.387Z,218.91
2023-03-29T14:47:10.496Z,221.32
2023-03-29T14:51:10.682Z,219.13
2023-03-29T14:55:00.864Z,25.00
2023-03-29T14:56:00.963Z,25.00
2023-03-29T14:57:00.925Z,25.00
2023-03-29T14:58:00.865Z,25.00
2023-03-29T14:59:00.809Z,25.00
2023-03-29T15:00:01.085Z,26.86
2023-03-29T15:01:00.906Z,25.00
2023-03-29T15:02:00.794Z,26.19
2023-03-29T15:03:00.999Z,34.77
2023-03-29T15:04:00.807Z,49.32
2023-03-29T15:05:00.839Z,31.68
2023-03-29T15:06:00.896Z,36.85
2023-03-29T15:07:00.781Z,27.68
2023-03-29T15:08:00.777Z,43.21
2023-03-29T15:09:06.005Z,42.91
2023-03-29T15:10:01.911Z,25.70
2023-03-29T15:11:00.748Z,37.06
2023-03-29T15:12:00.763Z,24.44
2023-03-29T15:13:00.741Z,36.97
2023-03-29T15:14:00.720Z,43.04
2023-03-29T15:15:00.727Z,32.10
2023-03-29T15:16:00.861Z,34.58
2023-03-29T15:17:00.681Z,35.25
2023-03-29T15:18:00.767Z,46.39
2023-03-29T15:19:00.713Z,55.16
2023-03-29T15:20:00.866Z,51.14
2023-03-29T15:21:00.648Z,38.10
2023-03-29T15:22:02.238Z,51.52
2023-03-29T15:23:00.687Z,59.91
2023-03-29T15:24:00.644Z,66.74
2023-03-29T15:25:00.645Z,39.45
2023-03-29T15:26:00.709Z,33.60
2023-03-29T15:27:00.611Z,49.38
2023-03-29T15:28:01.757Z,54.34
2023-03-29T15:29:00.618Z,55.54
2023-03-29T15:30:00.582Z,57.11
2023-03-29T15:31:07.780Z,58.27
2023-03-29T15:32:01.647Z,58.34
2023-03-29T15:33:00.647Z,48.36
2023-03-29T15:34:00.588Z,18.94
2023-03-29T15:35:00.622Z,20.87
2023-03-29T15:36:00.705Z,34.46
2023-03-29T15:37:00.586Z,41.51
2023-03-29T15:38:00.568Z,38.47
2023-03-29T15:39:00.511Z,47.57
2023-03-29T15:40:00.532Z,50.27
2023-03-29T15:41:00.532Z,53.40
2023-03-29T15:42:00.565Z,51.41
2023-03-29T15:43:00.509Z,56.35
2023-03-29T15:44:00.511Z,55.10
2023-03-29T15:45:00.496Z,59.49
2023-03-29T15:46:00.455Z,55.68
2023-03-29T15:47:00.559Z,60.33
2023-03-29T15:48:00.491Z,64.15
2023-03-29T15:49:00.457Z,67.84
2023-03-29T15:50:00.476Z,67.55
2023-03-29T15:51:03.752Z,68.45
2023-03-29T15:52:01.450Z,69.08
2023-03-29T15:53:14.148Z,70.20
2023-03-29T15:54:01.441Z,69.09
2023-03-29T15:55:00.414Z,71.10
2023-03-29T15:56:00.521Z,76.03
2023-03-29T15:57:00.501Z,81.24
2023-03-29T15:58:00.532Z,78.81
2023-03-29T15:59:00.382Z,87.41
2023-03-29T16:00:00.373Z,90.53
2023-03-29T16:01:00.478Z,91.26
2023-03-29T16:02:00.412Z,81.78
2023-03-29T16:03:00.376Z,90.83
2023-03-29T16:04:00.343Z,95.15
2023-03-29T16:05:01.072Z,90.82
2023-03-29T16:06:00.472Z,93.89
2023-03-29T16:07:00.317Z,92.53
2023-03-29T16:08:00.319Z,91.80
2023-03-29T16:09:00.312Z,93.11
2023-03-29T16:10:00.346Z,89.92
2023-03-29T16:11:00.350Z,96.64
2023-03-29T16:12:00.300Z,98.05
2023-03-29T16:13:00.285Z,94.34
2023-03-29T16:14:00.275Z,92.92
2023-03-29T16:15:00.254Z,95.09
2023-03-29T16:16:00.353Z,97.24
2023-03-29T16:17:00.417Z,93.14
2023-03-29T16:18:00.294Z,97.40
2023-03-29T16:19:00.240Z,98.40
2023-03-29T16:20:00.251Z,96.53
2023-03-29T16:21:00.321Z,102.70
2023-03-29T16:22:00.322Z,98.30
2023-03-29T16:23:00.301Z,101.80
2023-03-29T16:24:00.333Z,98.39
2023-03-29T16:25:00.388Z,102.17
2023-03-29T16:26:00.452Z,101.25
2023-03-29T16:27:00.398Z,102.60
2023-03-29T16:28:00.405Z,100.43
2023-03-29T16:29:00.416Z,100.48
2023-03-29T16:30:00.430Z,100.00
2023-03-29T16:31:00.436Z,99.25
2023-03-29T16:32:00.453Z,103.97
2023-03-29T16:33:00.438Z,102.75
2023-03-29T16:34:00.730Z,104.00
2023-03-29T16:35:00.452Z,102.24
2023-03-29T16:36:00.670Z,102.67
2023-03-29T16:37:00.474Z,101.50
2023-03-29T16:38:00.529Z,102.58
2023-03-29T16:39:00.559Z,102.69
2023-03-29T16:40:00.563Z,102.71
2023-03-29T16:41:00.569Z,104.26
2023-03-29T16:42:00.567Z,102.16
2023-03-29T16:43:00.550Z,104.18
2023-03-29T16:44:00.571Z,104.38
2023-03-29T16:45:00.607Z,104.71
2023-03-29T16:46:00.664Z,106.11
2023-03-29T16:47:00.807Z,103.26
2023-03-29T16:48:00.632Z,103.25
2023-03-29T16:49:00.632Z,103.77
2023-03-29T16:50:00.757Z,103.28
2023-03-29T16:51:00.697Z,103.10
2023-03-29T16:52:00.728Z,107.63
2023-03-29T16:53:00.773Z,107.15
2023-03-29T16:54:00.846Z,108.43
2023-03-29T16:55:00.885Z,108.24
2023-03-29T16:56:01.117Z,103.11
2023-03-29T16:57:00.982Z,107.29
2023-03-29T16:58:00.898Z,106.60
2023-03-29T16:59:00.919Z,108.55
2023-03-29T17:00:00.939Z,105.63
2023-03-29T17:01:01.104Z,108.63
2023-03-29T17:02:00.992Z,109.05
2023-03-29T17:03:01.039Z,109.33
2023-03-29T17:04:01.044Z,104.25
2023-03-29T17:05:01.032Z,111.49
2023-03-29T17:06:01.213Z,112.36
2023-03-29T17:07:01.066Z,108.93
2023-03-29T17:08:01.087Z,110.15
2023-03-29T17:09:01.100Z,110.72
2023-03-29T17:10:01.091Z,110.02
2023-03-29T17:11:01.219Z,108.93
2023-03-29T17:12:01.252Z,110.26
2023-03-29T17:13:01.223Z,109.06
2023-03-29T17:14:01.251Z,106.37
2023-03-29T17:15:01.290Z,111.48
2023-03-29T17:16:01.703Z,113.35
2023-03-29T17:17:01.354Z,113.61
2023-03-29T17:18:01.399Z,113.51
2023-03-29T17:19:01.438Z,112.61
2023-03-29T17:20:01.397Z,111.07
2023-03-29T17:21:01.436Z,111.75
2023-03-29T17:22:01.497Z,110.63
2023-03-29T17:23:01.478Z,114.42
2023-03-29T17:24:01.532Z,112.83
2023-03-29T17:25:01.566Z,109.12
2023-03-29T17:26:01.870Z,113.89
2023-03-29T17:27:01.610Z,110.49
2023-03-29T17:28:01.623Z,115.53
2023-03-29T17:29:01.620Z,111.95
2023-03-29T17:30:01.678Z,111.15
2023-03-29T17:31:01.749Z,114.79
2023-03-29T17:32:01.729Z,112.29
2023-03-29T17:33:01.799Z,114.78
2023-03-29T17:34:01.759Z,113.64
2023-03-29T17:35:01.800Z,116.02
2023-03-29T17:36:02.175Z,116.76
2023-03-29T17:37:01.831Z,117.35
2023-03-29T17:38:16.589Z,120.00
2023-03-29T17:39:02.822Z,120.78
2023-03-29T17:40:01.847Z,122.55
2023-03-29T17:41:01.841Z,122.81
2023-03-29T17:42:01.858Z,123.17
2023-03-29T17:43:01.841Z,124.30
2023-03-29T17:44:01.802Z,123.68
2023-03-29T17:45:01.843Z,121.62
2023-03-29T17:46:02.073Z,120.98
2023-03-29T17:47:01.929Z,120.38
2023-03-29T17:48:03.462Z,119.68
2023-03-29T17:49:01.773Z,119.86
2023-03-29T17:50:01.814Z,120.12
2023-03-29T17:51:01.770Z,120.44
2023-03-29T17:52:01.771Z,117.99
2023-03-29T17:53:01.765Z,117.65
2023-03-29T17:54:01.775Z,124.54
2023-03-29T17:55:01.760Z,138.88
2023-03-29T17:56:02.050Z,147.39
2023-03-29T17:57:01.755Z,143.99
2023-03-29T17:58:01.738Z,139.73
2023-03-29T17:59:01.716Z,135.57
2023-03-29T18:00:01.712Z,142.26
2023-03-29T18:01:01.717Z,144.19
2023-03-29T18:02:01.750Z,141.68
2023-03-29T18:03:01.739Z,137.97
2023-03-29T18:04:01.699Z,133.84
2023-03-29T18:05:01.674Z,130.69
2023-03-29T18:06:02.069Z,131.26
2023-03-29T18:07:01.689Z,131.31
2023-03-29T18:08:01.663Z,132.16
2023-03-29T18:09:01.654Z,131.41
2023-03-29T18:10:01.639Z,129.82
2023-03-29T18:11:01.651Z,127.08
2023-03-29T18:12:01.625Z,127.31
2023-03-29T18:13:01.659Z,127.69
2023-03-29T18:14:01.663Z,124.67
2023-03-29T18:15:01.571Z,120.62
2023-03-29T18:16:01.898Z,120.73
2023-03-29T18:17:01.638Z,121.68
2023-03-29T18:18:01.611Z,121.31
2023-03-29T18:19:01.569Z,123.35
2023-03-29T18:20:01.544Z,123.02
2023-03-29T18:21:01.574Z,121.72
2023-03-29T18:22:01.523Z,122.28
2023-03-29T18:23:01.534Z,119.00
2023-03-29T18:24:01.512Z,119.88
2023-03-29T18:25:01.494Z,118.25
2023-03-29T18:26:01.761Z,119.69
2023-03-29T18:27:01.521Z,117.50
2023-03-29T18:28:01.494Z,117.60
2023-03-29T18:29:01.456Z,117.26
2023-03-29T18:30:01.486Z,117.18
2023-03-29T18:31:01.480Z,116.13
2023-03-29T18:32:01.467Z,116.20
2023-03-29T18:33:01.625Z,116.69
2023-03-29T18:34:01.566Z,116.77
2023-03-29T18:35:01.581Z,118.10
2023-03-29T18:36:01.708Z,115.56
2023-03-29T18:37:01.626Z,112.53
2023-03-29T18:38:01.682Z,115.29
2023-03-29T18:39:01.696Z,114.79
2023-03-29T18:40:01.752Z,115.65
2023-03-29T18:41:01.803Z,111.35
2023-03-29T18:42:01.819Z,113.72
2023-03-29T18:43:01.871Z,115.86
2023-03-29T18:44:01.925Z,114.85
2023-03-29T18:45:01.934Z,116.15
2023-03-29T18:46:02.265Z,116.72
2023-03-29T18:47:02.008Z,113.48
2023-03-29T18:48:02.129Z,111.17
2023-03-29T18:49:02.109Z,115.16
2023-03-29T18:50:02.161Z,115.37
2023-03-29T18:51:04.417Z,116.64
2023-03-29T18:52:02.203Z,119.35
2023-03-29T18:53:02.252Z,119.94
2023-03-29T18:54:02.195Z,115.76
2023-03-29T18:55:02.212Z,114.45
2023-03-29T18:56:02.339Z,118.59
2023-03-29T18:57:02.251Z,122.69
2023-03-29T18:58:02.183Z,121.74
2023-03-29T18:59:02.185Z,122.54
2023-03-29T19:00:02.166Z,122.44
2023-03-29T19:01:02.208Z,121.81
2023-03-29T19:02:02.146Z,121.01
2023-03-29T19:03:02.245Z,122.91
2023-03-29T19:04:02.141Z,122.24
2023-03-29T19:05:02.093Z,122.49
2023-03-29T19:06:02.304Z,122.99
2023-03-29T19:07:02.139Z,121.54
2023-03-29T19:08:02.122Z,119.31
2023-03-29T19:09:02.188Z,122.88
2023-03-29T19:10:02.113Z,120.87
2023-03-29T19:11:02.117Z,121.87
2023-03-29T19:12:02.035Z,121.76
2023-03-29T19:13:02.041Z,119.65
2023-03-29T19:14:02.062Z,121.25
2023-03-29T19:15:02.039Z,119.12
2023-03-29T19:16:02.337Z,119.86
2023-03-29T19:17:02.047Z,120.04
2023-03-29T19:18:02.042Z,121.15
2023-03-29T19:19:02.030Z,121.66
2023-03-29T19:20:02.029Z,120.26
2023-03-29T19:21:02.015Z,118.02
2023-03-29T19:22:02.021Z,117.65
2023-03-29T19:23:02.003Z,117.95
2023-03-29T19:24:01.992Z,118.33
2023-03-29T19:25:02.005Z,118.07
2023-03-29T19:26:02.093Z,118.32
2023-03-29T19:27:01.973Z,116.98
2023-03-29T19:28:01.962Z,114.57
2023-03-29T19:29:01.923Z,114.23
2023-03-29T19:30:01.990Z,113.74
2023-03-29T19:31:02.029Z,113.45
2023-03-29T19:32:01.941Z,114.36
2023-03-29T19:33:02.016Z,114.11
2023-03-29T19:34:02.048Z,113.05
2023-03-29T19:35:02.114Z,113.67
2023-03-29T19:36:02.448Z,115.68
2023-03-29T19:37:02.196Z,112.22
2023-03-29T19:38:02.240Z,111.96
2023-03-29T19:39:02.299Z,109.37
2023-03-29T19:40:02.317Z,111.40
2023-03-29T19:41:02.368Z,116.99
2023-03-29T19:42:02.399Z,111.67
2023-03-29T19:43:02.417Z,113.78
2023-03-29T19:44:02.514Z,113.14
2023-03-29T19:45:02.542Z,111.26
2023-03-29T19:46:02.755Z,109.57
2023-03-29T19:47:02.696Z,111.89
2023-03-29T19:48:03.656Z,112.39
2023-03-29T19:49:04.441Z,111.75
2023-03-29T19:50:02.727Z,114.33
2023-03-29T19:51:02.705Z,113.24
2023-03-29T19:52:02.699Z,110.64
2023-03-29T19:53:02.690Z,109.27
2023-03-29T19:54:02.735Z,110.03
2023-03-29T19:55:02.656Z,109.18
2023-03-29T19:56:02.861Z,112.02
2023-03-29T19:57:02.754Z,110.27
2023-03-29T19:58:02.676Z,112.44
2023-03-29T19:59:02.631Z,113.42
2023-03-29T20:00:02.621Z,108.60
2023-03-29T20:01:03.031Z,109.23
2023-03-29T20:02:02.658Z,106.88
2023-03-29T20:03:02.696Z,110.49
2023-03-29T20:04:02.651Z,107.72
2023-03-29T20:05:02.600Z,108.01
2023-03-29T20:06:02.656Z,106.29
2023-03-29T20:07:02.690Z,105.83
2023-03-29T20:08:02.651Z,110.02
2023-03-29T20:09:02.557Z,108.37
2023-03-29T20:10:02.567Z,106.54
2023-03-29T20:11:02.811Z,108.02
2023-03-29T20:12:02.579Z,109.16
2023-03-29T20:13:02.573Z,106.00
2023-03-29T20:14:02.514Z,105.56
2023-03-29T20:15:02.540Z,106.07
2023-03-29T20:16:02.574Z,103.95
2023-03-29T20:17:02.508Z,105.87
2023-03-29T20:18:02.546Z,102.13
2023-03-29T20:19:02.500Z,104.89
2023-03-29T20:20:02.525Z,103.38
2023-03-29T20:21:02.757Z,106.52
2023-03-29T20:22:02.516Z,105.41
2023-03-29T20:23:05.013Z,104.60
2023-03-29T20:24:02.461Z,108.03
2023-03-29T20:25:02.479Z,104.70
2023-03-29T20:26:02.429Z,108.56
2023-03-29T20:27:02.437Z,105.99
2023-03-29T20:28:02.404Z,102.27
2023-03-29T20:29:02.469Z,107.13
2023-03-29T20:30:02.418Z,105.25
2023-03-29T20:31:02.653Z,104.97
2023-03-29T20:32:02.443Z,103.51
2023-03-29T20:33:02.465Z,104.17
2023-03-29T20:34:02.408Z,105.79
2023-03-29T20:35:02.374Z,104.19
2023-03-29T20:36:02.512Z,101.91
2023-03-29T20:37:02.425Z,104.48
2023-03-29T20:38:02.372Z,102.73
2023-03-29T20:39:02.362Z,103.98
2023-03-29T20:40:02.346Z,103.23
2023-03-29T20:41:02.558Z,101.43
2023-03-29T20:42:02.339Z,103.01
2023-03-29T20:43:02.328Z,103.58
2023-03-29T20:44:02.357Z,102.98
2023-03-29T20:45:02.322Z,104.69
2023-03-29T20:46:02.350Z,104.05
2023-03-29T20:47:02.361Z,101.82
2023-03-29T20:48:02.391Z,102.20
2023-03-29T20:49:02.291Z,100.09
2023-03-29T20:50:02.251Z,101.82
2023-03-29T20:51:02.559Z,102.43
2023-03-29T20:52:02.276Z,102.43
2023-03-29T20:53:02.296Z,98.48
2023-03-29T20:54:02.441Z,100.29
2023-03-29T20:55:02.262Z,99.73
2023-03-29T20:56:02.224Z,99.39
2023-03-29T20:57:02.270Z,100.11
2023-03-29T20:58:02.261Z,102.82
2023-03-29T20:59:02.203Z,103.42
2023-03-29T21:00:02.240Z,99.57
2023-03-29T21:01:02.751Z,103.42
2023-03-29T21:02:02.308Z,99.98
2023-03-29T21:03:02.306Z,102.43
2023-03-29T21:04:02.262Z,101.64
2023-03-29T21:05:02.308Z,99.30
2023-03-29T21:06:02.380Z,99.62
2023-03-29T21:07:03.478Z,102.18
2023-03-29T21:08:02.464Z,100.93
2023-03-29T21:09:02.485Z,100.53
2023-03-29T21:10:02.541Z,100.63
2023-03-29T21:11:02.738Z,99.86
2023-03-29T21:12:02.673Z,100.24
2023-03-29T21:13:02.976Z,100.99
2023-03-29T21:14:02.727Z,100.29
2023-03-29T21:15:02.814Z,99.91
2023-03-29T21:16:02.907Z,102.72
2023-03-29T21:17:02.898Z,100.42
2023-03-29T21:18:02.979Z,100.48
2023-03-29T21:19:03.001Z,101.97
2023-03-29T21:20:03.048Z,99.06
2023-03-29T21:21:03.203Z,100.20
2023-03-29T21:22:03.154Z,98.17
2023-03-29T21:23:03.204Z,98.97
2023-03-29T21:24:03.215Z,99.32
2023-03-29T21:25:03.257Z,98.84
2023-03-29T21:26:03.283Z,99.30
2023-03-29T21:27:03.385Z,98.36
2023-03-29T21:28:03.411Z,98.65
2023-03-29T21:29:03.453Z,98.38
2023-03-29T21:30:03.490Z,98.17
2023-03-29T21:31:03.684Z,99.40
2023-03-29T21:32:03.581Z,102.29
2023-03-29T21:33:03.648Z,98.18
2023-03-29T21:34:03.678Z,100.32
2023-03-29T21:35:03.720Z,100.63
2023-03-29T21:36:03.836Z,98.82
2023-03-29T21:37:03.798Z,97.67
2023-03-29T21:38:03.866Z,100.30
2023-03-29T21:39:03.893Z,94.56
2023-03-29T21:40:03.954Z,100.57
2023-03-29T21:41:04.218Z,97.24
2023-03-29T21:42:04.039Z,100.39
2023-03-29T21:43:04.107Z,97.80
2023-03-29T21:44:04.157Z,97.68
2023-03-29T21:45:04.201Z,99.47
2023-03-29T21:46:04.243Z,97.48
2023-03-29T21:47:04.336Z,96.15
2023-03-29T21:48:04.394Z,98.85
2023-03-29T21:49:04.403Z,96.32
2023-03-29T21:50:04.500Z,99.99
2023-03-29T21:51:04.744Z,98.76
2023-03-29T21:52:04.512Z,98.61
2023-03-29T21:53:04.579Z,101.33
2023-03-29T21:54:04.642Z,97.52
2023-03-29T21:55:04.704Z,96.71
2023-03-29T21:56:04.749Z,98.94
2023-03-29T21:57:04.907Z,96.86
2023-03-29T21:58:04.830Z,96.82
2023-03-29T21:59:04.915Z,99.58
2023-03-29T22:00:04.979Z,98.92
2023-03-29T22:01:05.249Z,100.45
2023-03-29T22:02:05.191Z,101.70
2023-03-29T22:03:05.135Z,97.18
2023-03-29T22:04:05.220Z,100.57
2023-03-29T22:05:05.237Z,99.04
2023-03-29T22:06:05.352Z,100.30
2023-03-29T22:07:05.421Z,98.28
2023-03-29T22:08:05.415Z,97.20
2023-03-29T22:09:05.472Z,98.58
2023-03-29T22:10:05.517Z,99.83
2023-03-29T22:11:07.484Z,101.32
2023-03-29T22:12:05.620Z,99.55
2023-03-29T22:13:05.651Z,100.02
2023-03-29T22:14:05.696Z,100.13
2023-03-29T22:15:05.772Z,96.36
2023-03-29T22:16:05.899Z,98.94
2023-03-29T22:17:05.908Z,96.36
2023-03-29T22:18:05.952Z,97.70
2023-03-29T22:19:05.957Z,99.83
2023-03-29T22:20:06.006Z,95.86
2023-03-29T22:21:06.107Z,97.05
2023-03-29T22:22:06.129Z,96.55
2023-03-29T22:23:06.143Z,96.67
2023-03-29T22:24:06.234Z,98.11
2023-03-29T22:25:06.278Z,100.27
2023-03-29T22:26:06.358Z,98.12
2023-03-29T22:27:06.362Z,101.01
2023-03-29T22:28:06.407Z,100.53
2023-03-29T22:29:06.439Z,96.65
2023-03-29T22:30:06.535Z,97.88
2023-03-29T22:31:06.531Z,99.07
2023-03-29T22:32:06.615Z,97.21
2023-03-29T22:33:06.679Z,97.81
2023-03-29T22:34:06.758Z,95.50
2023-03-29T22:35:06.760Z,95.64
2023-03-29T22:36:06.782Z,94.77
2023-03-29T22:37:06.803Z,97.81
2023-03-29T22:38:06.882Z,97.44
2023-03-29T22:39:06.949Z,97.81
2023-03-29T22:40:07.000Z,96.94
2023-03-29T22:41:07.011Z,94.97
2023-03-29T22:42:07.202Z,96.38
2023-03-29T22:43:07.122Z,99.20
2023-03-29T22:44:07.189Z,98.24
2023-03-29T22:45:07.217Z,95.84
2023-03-29T22:46:07.277Z,99.80
2023-03-29T22:47:07.310Z,97.99
2023-03-29T22:48:07.415Z,96.15
2023-03-29T22:49:07.401Z,96.72
2023-03-29T22:50:07.490Z,99.68
2023-03-29T22:51:07.497Z,96.84
2023-03-29T22:52:07.521Z,98.43
2023-03-29T22:53:07.597Z,98.15
2023-03-29T22:54:07.602Z,97.37
2023-03-29T22:55:07.669Z,96.77
2023-03-29T22:56:07.721Z,95.08
2023-03-29T22:57:07.805Z,96.35
2023-03-29T22:58:07.802Z,97.20
2023-03-29T22:59:07.850Z,97.77
2023-03-29T23:00:07.920Z,99.39
2023-03-29T23:01:08.231Z,98.19
2023-03-29T23:02:08.025Z,97.00
2023-03-29T23:03:08.106Z,94.81
2023-03-29T23:04:08.121Z,95.41
2023-03-29T23:05:08.139Z,96.79
2023-03-29T23:06:08.178Z,96.06
2023-03-29T23:07:08.253Z,93.51
2023-03-29T23:08:08.303Z,91.96
2023-03-29T23:09:08.334Z,96.92
2023-03-29T23:10:08.393Z,95.63
2023-03-29T23:11:08.457Z,96.09
2023-03-29T23:12:08.499Z,93.48
2023-03-29T23:13:08.597Z,95.20
2023-03-29T23:14:08.619Z,95.02
2023-03-29T23:15:08.615Z,95.42
2023-03-29T23:16:08.778Z,95.07
2023-03-29T23:17:08.738Z,94.42
2023-03-29T23:18:08.812Z,94.32
2023-03-29T23:19:08.814Z,95.85
2023-03-29T23:20:08.909Z,94.79
2023-03-29T23:21:09.006Z,95.26
2023-03-29T23:22:08.976Z,95.69
2023-03-29T23:23:08.995Z,92.81
2023-03-29T23:24:09.019Z,94.47
2023-03-29T23:25:09.107Z,94.93
2023-03-29T23:26:09.102Z,96.59
2023-03-29T23:27:09.114Z,95.77
2023-03-29T23:28:09.216Z,93.07
2023-03-29T23:29:09.221Z,94.18
2023-03-29T23:30:09.281Z,97.75
2023-03-29T23:31:09.896Z,94.97
2023-03-29T23:32:09.398Z,98.56
2023-03-29T23:33:09.483Z,95.49
2023-03-29T23:34:09.466Z,95.69
2023-03-29T23:35:09.516Z,94.31
2023-03-29T23:36:09.600Z,97.91
2023-03-29T23:37:09.646Z,96.33
2023-03-29T23:38:09.648Z,96.95
2023-03-29T23:39:09.715Z,93.82
2023-03-29T23:40:09.713Z,92.56
2023-03-29T23:41:09.721Z,94.13
2023-03-29T23:42:09.750Z,95.87
2023-03-29T23:43:09.836Z,96.40
2023-03-29T23:44:09.843Z,93.07
2023-03-29T23:45:10.002Z,94.00
2023-03-29T23:46:09.995Z,94.76
2023-03-29T23:47:10.024Z,98.20
2023-03-29T23:48:10.073Z,98.56